createdAt,value
2022-08-31T00:00:48.046Z,70.45
2022-08-31T00:03:32.618Z,69.74
2022-08-31T00:06:00.460Z,70.45
2022-08-31T00:08:27.113Z,69.36
2022-08-31T00:10:55.294Z,69.95
2022-08-31T00:13:25.529Z,69.52
2022-08-31T00:15:53.241Z,70.36
2022-08-31T00:18:20.077Z,70.94
2022-08-31T00:20:47.059Z,71.50
2022-08-31T00:23:14.752Z,70.03
2022-08-31T00:25:42.448Z,71.40
2022-08-31T00:28:10.012Z,70.88
2022-08-31T00:30:36.591Z,71.39
2022-08-31T00:33:03.341Z,70.82
2022-08-31T00:35:30.596Z,69.88
2022-08-31T00:37:57.397Z,70.60
2022-08-31T00:40:24.240Z,71.63
2022-08-31T00:42:50.764Z,70.02
2022-08-31T00:45:17.413Z,70.30
2022-08-31T00:47:43.844Z,70.66
2022-08-31T00:50:12.335Z,70.57
2022-08-31T00:52:41.014Z,71.57
2022-08-31T00:55:07.581Z,70.61
2022-08-31T00:57:35.319Z,71.69
2022-08-31T01:00:04.070Z,71.15
2022-08-31T01:02:31.619Z,71.18
2022-08-31T01:04:58.030Z,72.05
2022-08-31T01:07:24.814Z,70.53
2022-08-31T01:09:55.460Z,71.60
2022-08-31T01:12:22.170Z,72.16
2022-08-31T01:14:48.654Z,72.44
2022-08-31T01:17:15.112Z,71.43
2022-08-31T01:19:53.692Z,72.55
2022-08-31T01:22:55.624Z,71.49
2022-08-31T01:25:22.174Z,72.28
2022-08-31T01:27:48.621Z,70.73
2022-08-31T01:30:21.026Z,71.86
2022-08-31T01:32:47.490Z,71.84
2022-08-31T01:35:13.867Z,71.77
2022-08-31T01:37:40.224Z,71.95
2022-08-31T01:40:07.265Z,70.32
2022-08-31T01:42:34.313Z,71.48
2022-08-31T01:45:01.056Z,71.71
2022-08-31T01:47:27.394Z,70.84
2022-08-31T01:49:55.321Z,71.42
2022-08-31T01:52:24.303Z,71.33
2022-08-31T01:54:54.025Z,71.12
2022-08-31T01:57:21.768Z,71.47
2022-08-31T02:00:01.175Z,69.86
2022-08-31T02:02:27.594Z,71.52
2022-08-31T02:04:54.052Z,70.81
2022-08-31T02:07:20.535Z,71.89
2022-08-31T02:09:46.877Z,71.86
2022-08-31T02:12:13.253Z,71.28
2022-08-31T02:14:39.651Z,70.52
2022-08-31T02:17:06.013Z,71.74
2022-08-31T02:19:32.351Z,72.04
2022-08-31T02:21:59.107Z,71.98
2022-08-31T02:24:25.562Z,71.67
2022-08-31T02:26:53.963Z,71.50
2022-08-31T02:29:20.570Z,71.30
2022-08-31T02:31:46.987Z,72.59
2022-08-31T02:34:14.026Z,72.92
2022-08-31T02:36:42.601Z,71.64
2022-08-31T02:39:08.954Z,71.65
2022-08-31T02:41:35.369Z,71.47
2022-08-31T02:44:02.393Z,72.11
2022-08-31T02:46:28.794Z,71.73
2022-08-31T02:48:55.177Z,71.91
2022-08-31T02:51:21.534Z,72.00
2022-08-31T02:53:47.912Z,72.00
2022-08-31T02:56:14.394Z,71.80
2022-08-31T02:58:41.109Z,71.89
2022-08-31T03:01:07.490Z,72.93
2022-08-31T03:03:34.781Z,72.07
2022-08-31T03:06:01.614Z,72.69
2022-08-31T03:08:28.306Z,73.38
2022-08-31T03:10:57.726Z,71.78
2022-08-31T03:13:24.061Z,72.03
2022-08-31T03:15:50.480Z,71.89
2022-08-31T03:18:16.833Z,72.24
2022-08-31T03:20:43.187Z,73.37
2022-08-31T03:23:09.631Z,72.48
2022-08-31T03:25:36.271Z,72.35
2022-08-31T03:28:06.786Z,73.44
2022-08-31T03:30:33.267Z,73.69
2022-08-31T03:33:02.689Z,73.68
2022-08-31T03:35:29.515Z,72.95
2022-08-31T03:37:56.339Z,72.72
2022-08-31T03:40:22.966Z,73.64
2022-08-31T03:42:49.982Z,72.19
2022-08-31T03:45:16.595Z,73.50
2022-08-31T03:47:44.874Z,73.15
2022-08-31T03:50:12.081Z,73.46
2022-08-31T03:52:38.726Z,73.09
2022-08-31T03:55:05.672Z,72.71
2022-08-31T03:57:32.206Z,71.98
2022-08-31T03:59:58.637Z,72.03
2022-08-31T04:02:25.084Z,72.86
2022-08-31T04:04:52.489Z,72.80
2022-08-31T04:07:19.101Z,73.80
2022-08-31T04:09:47.825Z,73.09
2022-08-31T04:12:15.060Z,73.38
2022-08-31T04:14:41.464Z,73.75
2022-08-31T04:17:11.728Z,73.35
2022-08-31T04:19:38.560Z,72.14
2022-08-31T04:22:04.928Z,73.86
2022-08-31T04:24:31.284Z,72.52
2022-08-31T04:26:59.062Z,72.50
2022-08-31T04:29:25.379Z,73.93
2022-08-31T04:31:51.751Z,72.28
2022-08-31T04:34:18.180Z,72.85
2022-08-31T04:36:45.366Z,73.81
2022-08-31T04:39:12.365Z,74.38
2022-08-31T04:41:40.490Z,74.44
2022-08-31T04:44:07.422Z,74.31
2022-08-31T04:46:35.417Z,73.62
2022-08-31T04:49:01.881Z,73.94
2022-08-31T04:51:30.938Z,74.91
2022-08-31T04:53:57.731Z,74.91
2022-08-31T04:56:28.628Z,73.79
2022-08-31T04:58:57.048Z,74.96
2022-08-31T05:01:26.247Z,75.37
2022-08-31T05:03:55.054Z,74.98
2022-08-31T05:06:22.360Z,75.51
2022-08-31T05:08:52.138Z,75.86
2022-08-31T05:11:24.270Z,74.97
2022-08-31T05:13:52.635Z,75.79
2022-08-31T05:16:19.643Z,76.26
2022-08-31T05:18:47.206Z,74.74
2022-08-31T05:21:20.484Z,76.07
2022-08-31T05:23:48.487Z,75.05
2022-08-31T05:26:21.549Z,75.00
2022-08-31T05:28:49.984Z,74.59
2022-08-31T05:31:16.643Z,74.98
2022-08-31T05:33:43.832Z,76.14
2022-08-31T05:36:11.294Z,75.08
2022-08-31T05:38:37.889Z,75.85
2022-08-31T05:41:06.076Z,75.02
2022-08-31T05:43:32.600Z,77.03
2022-08-31T05:45:59.075Z,76.14
2022-08-31T05:48:30.056Z,76.14
2022-08-31T05:50:59.830Z,76.00
2022-08-31T05:53:27.082Z,76.63
2022-08-31T05:56:03.963Z,76.32
2022-08-31T05:58:30.517Z,77.74
2022-08-31T06:00:57.271Z,78.24
2022-08-31T06:03:23.647Z,77.96
2022-08-31T06:05:53.082Z,77.83
2022-08-31T06:08:19.796Z,78.28
2022-08-31T06:10:54.123Z,80.25
2022-08-31T06:13:21.019Z,78.69
2022-08-31T06:15:47.689Z,79.78
2022-08-31T06:18:14.095Z,79.84
2022-08-31T06:20:40.461Z,81.37
2022-08-31T06:23:08.338Z,81.32
2022-08-31T06:25:36.604Z,76.76
2022-08-31T06:28:07.258Z,79.33
2022-08-31T06:30:54.350Z,79.36
2022-08-31T06:33:21.562Z,79.13
2022-08-31T06:35:48.139Z,79.25
2022-08-31T06:38:14.497Z,80.50
2022-08-31T06:40:40.936Z,79.60
2022-08-31T06:43:07.812Z,78.97
2022-08-31T06:45:34.211Z,79.73
2022-08-31T06:48:00.791Z,78.75
2022-08-31T06:50:27.248Z,77.39
2022-08-31T06:52:55.551Z,78.69
2022-08-31T06:55:22.199Z,77.28
2022-08-31T06:57:48.688Z,76.70
2022-08-31T07:00:15.315Z,78.36
2022-08-31T07:02:41.743Z,78.20
2022-08-31T07:05:11.458Z,80.02
2022-08-31T07:07:40.213Z,78.24
2022-08-31T07:10:10.307Z,78.53
2022-08-31T07:12:36.764Z,79.28
2022-08-31T07:15:03.358Z,77.93
2022-08-31T07:17:29.768Z,78.04
2022-08-31T07:19:56.215Z,77.73
2022-08-31T07:22:22.747Z,76.14
2022-08-31T07:24:49.151Z,75.02
2022-08-31T07:27:16.527Z,75.97
2022-08-31T07:29:43.058Z,77.94
2022-08-31T07:32:10.751Z,76.63
2022-08-31T07:34:37.319Z,76.37
2022-08-31T07:37:22.932Z,74.52
2022-08-31T07:40:08.483Z,73.41
2022-08-31T07:42:39.862Z,73.57
2022-08-31T07:45:10.169Z,72.91
2022-08-31T07:47:46.067Z,74.51
2022-08-31T07:50:13.885Z,73.81
2022-08-31T07:52:47.083Z,73.07
2022-08-31T07:55:15.113Z,72.54
2022-08-31T07:57:44.080Z,72.00
2022-08-31T08:00:12.917Z,72.30
2022-08-31T08:02:39.812Z,70.77
2022-08-31T08:05:07.480Z,71.92
2022-08-31T08:07:35.270Z,71.62
2022-08-31T08:10:02.640Z,71.96
2022-08-31T08:12:29.054Z,71.15
2022-08-31T08:14:58.969Z,73.53
2022-08-31T08:17:25.361Z,70.23
2022-08-31T08:19:51.782Z,69.75
2022-08-31T08:22:35.674Z,69.56
2022-08-31T08:25:06.939Z,68.62
2022-08-31T08:27:33.924Z,68.60
2022-08-31T08:30:00.332Z,69.20
2022-08-31T08:32:26.868Z,67.80
2022-08-31T08:34:53.271Z,69.02
2022-08-31T08:37:31.031Z,67.98
2022-08-31T08:40:06.829Z,67.45
2022-08-31T08:42:33.519Z,66.49
2022-08-31T08:44:59.954Z,66.32
2022-08-31T08:47:37.636Z,65.42
2022-08-31T08:50:07.195Z,65.69
2022-08-31T08:52:43.882Z,65.17
2022-08-31T08:55:12.292Z,65.00
2022-08-31T08:57:40.290Z,65.10
2022-08-31T09:00:13.015Z,65.00
2022-08-31T09:02:57.989Z,64.18
2022-08-31T09:05:34.977Z,64.62
2022-08-31T09:08:01.402Z,64.33
2022-08-31T09:10:38.970Z,64.41
2022-08-31T09:13:25.608Z,65.27
2022-08-31T09:15:56.201Z,64.29
2022-08-31T09:18:26.347Z,63.35
2022-08-31T09:21:01.824Z,63.32
2022-08-31T09:23:29.922Z,62.92
2022-08-31T09:25:58.463Z,63.11
2022-08-31T09:28:36.175Z,63.62
2022-08-31T09:31:03.097Z,64.35
2022-08-31T09:33:31.444Z,63.90
2022-08-31T09:36:41.003Z,63.21
2022-08-31T09:39:15.017Z,62.42
2022-08-31T09:41:42.066Z,63.49
2022-08-31T09:44:21.725Z,63.21
2022-08-31T09:46:49.602Z,63.05
2022-08-31T09:49:25.056Z,63.12
2022-08-31T09:51:52.165Z,64.14
2022-08-31T09:54:46.198Z,64.07
2022-08-31T09:57:13.882Z,64.76
2022-08-31T09:59:48.265Z,63.26
2022-08-31T10:02:26.551Z,65.26
2022-08-31T10:04:55.209Z,65.31
2022-08-31T10:07:24.933Z,61.90
2022-08-31T10:09:57.537Z,62.71
2022-08-31T10:12:36.217Z,63.32
2022-08-31T10:15:15.382Z,65.01
2022-08-31T10:17:45.223Z,64.20
2022-08-31T10:20:18.521Z,65.50
2022-08-31T10:23:08.781Z,62.37
2022-08-31T10:25:42.870Z,61.39
2022-08-31T10:28:14.752Z,61.04
2022-08-31T10:30:42.172Z,62.95
2022-08-31T10:33:14.827Z,61.04
2022-08-31T10:35:48.841Z,59.47
2022-08-31T10:38:24.084Z,59.20
2022-08-31T10:41:00.772Z,58.97
2022-08-31T10:43:41.988Z,58.42
2022-08-31T10:46:08.448Z,59.48
2022-08-31T10:48:37.751Z,61.40
2022-08-31T10:51:19.338Z,60.57
2022-08-31T10:53:52.198Z,61.01
2022-08-31T10:56:39.742Z,60.44
2022-08-31T10:59:12.754Z,60.28
2022-08-31T11:01:56.068Z,60.38
2022-08-31T11:04:29.331Z,60.17
2022-08-31T11:07:00.625Z,59.70
2022-08-31T11:09:34.593Z,60.57
2022-08-31T11:12:07.081Z,59.30
2022-08-31T11:14:45.670Z,59.64
2022-08-31T11:17:38.410Z,59.72
2022-08-31T11:20:19.820Z,58.82
2022-08-31T11:23:05.591Z,57.45
2022-08-31T11:25:31.944Z,59.20
2022-08-31T11:28:13.753Z,58.42
2022-08-31T11:30:45.805Z,59.07
2022-08-31T11:33:22.214Z,61.19
2022-08-31T11:36:04.074Z,60.50
2022-08-31T11:38:45.134Z,58.97
2022-08-31T11:41:31.431Z,59.44
2022-08-31T11:43:57.835Z,59.42
2022-08-31T11:46:27.674Z,58.80
2022-08-31T11:48:54.832Z,58.13
2022-08-31T11:51:36.039Z,58.66
2022-08-31T11:54:11.294Z,58.33
2022-08-31T11:56:39.289Z,57.81
2022-08-31T11:59:27.315Z,57.74
2022-08-31T12:01:58.250Z,57.08
2022-08-31T12:04:41.954Z,56.92
2022-08-31T12:07:11.087Z,56.98
2022-08-31T12:09:37.959Z,55.81
2022-08-31T12:12:25.025Z,57.52
2022-08-31T12:14:51.395Z,58.05
2022-08-31T12:17:21.726Z,56.78
2022-08-31T12:20:02.303Z,55.82
2022-08-31T12:22:47.413Z,56.91
2022-08-31T12:25:22.740Z,56.35
2022-08-31T12:28:05.556Z,54.56
2022-08-31T12:30:32.155Z,56.91
2022-08-31T12:33:08.073Z,55.16
2022-08-31T12:35:36.729Z,55.95
2022-08-31T12:38:04.707Z,55.18
2022-08-31T12:40:33.051Z,54.70
2022-08-31T12:43:08.581Z,54.27
2022-08-31T12:45:38.019Z,53.86
2022-08-31T12:48:23.080Z,54.13
2022-08-31T12:50:56.844Z,53.38
2022-08-31T12:53:38.012Z,52.73
2022-08-31T12:56:10.290Z,52.99
2022-08-31T12:58:51.841Z,53.92
2022-08-31T13:01:21.118Z,53.54
2022-08-31T13:03:54.024Z,53.64
2022-08-31T13:06:26.335Z,54.20
2022-08-31T13:08:56.159Z,54.43
2022-08-31T13:11:26.142Z,54.29
2022-08-31T13:14:09.840Z,53.47
2022-08-31T13:16:38.866Z,54.56
2022-08-31T13:19:06.970Z,53.38
2022-08-31T13:21:33.932Z,54.43
2022-08-31T13:24:07.101Z,53.67
2022-08-31T13:26:36.446Z,53.81
2022-08-31T13:29:07.494Z,54.45
2022-08-31T13:31:36.012Z,54.68
2022-08-31T13:34:07.218Z,54.17
2022-08-31T13:36:37.849Z,54.78
2022-08-31T13:39:15.745Z,52.82
2022-08-31T13:41:54.441Z,52.93
2022-08-31T13:44:22.489Z,53.81
2022-08-31T13:47:01.016Z,54.28
2022-08-31T13:49:35.641Z,54.44
2022-08-31T13:52:21.221Z,55.41
2022-08-31T13:54:58.541Z,55.03
2022-08-31T13:57:34.895Z,54.71
2022-08-31T14:00:20.599Z,55.47
2022-08-31T14:02:47.034Z,54.99
2022-08-31T14:05:28.074Z,54.87
2022-08-31T14:07:56.471Z,54.76
2022-08-31T14:10:26.129Z,55.12
2022-08-31T14:12:57.369Z,55.13
2022-08-31T14:15:36.015Z,57.58
2022-08-31T14:18:24.462Z,55.00
2022-08-31T14:21:23.799Z,54.22
2022-08-31T14:23:53.574Z,55.59
2022-08-31T14:26:21.457Z,55.16
2022-08-31T14:28:49.977Z,53.91
2022-08-31T14:31:31.534Z,55.78
2022-08-31T14:34:23.220Z,56.67
2022-08-31T14:36:57.849Z,57.89
2022-08-31T14:39:32.773Z,58.23
2022-08-31T14:42:06.087Z,58.87
2022-08-31T14:44:33.998Z,59.44
2022-08-31T14:47:00.912Z,58.97
2022-08-31T14:49:31.551Z,58.45
2022-08-31T14:52:06.102Z,58.25
2022-08-31T14:54:35.009Z,57.51
2022-08-31T14:57:06.071Z,57.74
2022-08-31T14:59:33.124Z,58.11
2022-08-31T15:01:59.490Z,57.64
2022-08-31T15:04:28.295Z,58.31
2022-08-31T15:07:09.666Z,57.18
2022-08-31T15:09:40.445Z,57.71
2022-08-31T15:12:07.963Z,58.45
2022-08-31T15:14:37.956Z,58.59
2022-08-31T15:17:06.688Z,58.23
2022-08-31T15:19:39.166Z,57.54
2022-08-31T15:22:09.133Z,58.24
2022-08-31T15:24:36.562Z,58.01
2022-08-31T15:27:03.168Z,58.37
2022-08-31T15:29:30.895Z,58.58
2022-08-31T15:31:58.513Z,58.40
2022-08-31T15:34:30.123Z,58.56
2022-08-31T15:37:02.153Z,58.63
2022-08-31T15:39:34.943Z,58.58
2022-08-31T15:42:08.977Z,59.12
2022-08-31T15:44:36.239Z,58.56
2022-08-31T15:47:21.835Z,58.25
2022-08-31T15:49:48.211Z,58.21
2022-08-31T15:52:14.622Z,58.40
2022-08-31T15:54:41.193Z,57.77
2022-08-31T15:57:08.003Z,58.63
2022-08-31T15:59:43.476Z,57.45
2022-08-31T16:02:13.190Z,57.61
2022-08-31T16:04:43.209Z,58.53
2022-08-31T16:07:10.990Z,59.00
2022-08-31T16:09:40.801Z,59.29
2022-08-31T16:12:10.878Z,58.86
2022-08-31T16:14:38.318Z,58.07
2022-08-31T16:17:06.017Z,59.13
2022-08-31T16:19:35.990Z,58.99
2022-08-31T16:22:03.474Z,59.26
2022-08-31T16:24:35.930Z,58.72
2022-08-31T16:27:02.955Z,59.53
2022-08-31T16:29:32.347Z,59.58
2022-08-31T16:31:58.783Z,59.30
2022-08-31T16:34:25.551Z,59.53
2022-08-31T16:36:52.942Z,58.56
2022-08-31T16:39:19.825Z,58.88
2022-08-31T16:41:46.570Z,58.99
2022-08-31T16:44:19.986Z,60.51
2022-08-31T16:46:46.935Z,59.58
2022-08-31T16:49:31.743Z,59.44
2022-08-31T16:52:00.606Z,59.03
2022-08-31T16:54:28.554Z,59.56
2022-08-31T16:56:57.463Z,59.71
2022-08-31T16:59:25.451Z,59.21
2022-08-31T17:01:51.857Z,59.18
2022-08-31T17:04:41.191Z,59.05
2022-08-31T17:07:06.364Z,58.76
2022-08-31T17:09:32.772Z,60.65
2022-08-31T17:12:00.636Z,60.34
2022-08-31T17:14:32.153Z,60.08
2022-08-31T17:17:03.370Z,60.28
2022-08-31T17:19:31.253Z,60.14
2022-08-31T17:21:59.220Z,60.28
2022-08-31T17:24:28.270Z,59.54
2022-08-31T17:26:59.650Z,60.13
2022-08-31T17:29:27.430Z,60.01
2022-08-31T17:31:55.677Z,60.26
2022-08-31T17:34:23.804Z,59.36
2022-08-31T17:36:50.847Z,60.31
2022-08-31T17:39:18.163Z,60.70
2022-08-31T17:41:45.224Z,59.84
2022-08-31T17:44:16.393Z,60.38
2022-08-31T17:46:43.866Z,59.87
2022-08-31T17:49:10.572Z,60.12
2022-08-31T17:51:38.471Z,60.91
2022-08-31T17:54:07.572Z,59.58
2022-08-31T17:56:47.609Z,59.80
2022-08-31T17:59:16.497Z,59.96
2022-08-31T18:01:43.081Z,60.52
2022-08-31T18:04:09.503Z,60.08
2022-08-31T18:06:36.034Z,60.28
2022-08-31T18:09:02.455Z,60.22
2022-08-31T18:11:29.154Z,61.05
2022-08-31T18:13:55.897Z,60.84
2022-08-31T18:16:22.350Z,60.81
2022-08-31T18:18:49.601Z,60.96
2022-08-31T18:21:17.127Z,61.00
2022-08-31T18:23:43.525Z,61.37
2022-08-31T18:26:35.996Z,61.27
2022-08-31T18:29:04.001Z,61.68
2022-08-31T18:31:30.684Z,61.80
2022-08-31T18:33:58.135Z,62.43
2022-08-31T18:36:25.876Z,62.19
2022-08-31T18:38:53.685Z,62.61
2022-08-31T18:41:39.545Z,63.05
2022-08-31T18:44:24.851Z,63.17
2022-08-31T18:46:51.420Z,63.41
2022-08-31T18:49:22.143Z,63.49
2022-08-31T18:51:52.692Z,63.95
2022-08-31T18:54:20.363Z,64.13
2022-08-31T18:56:47.250Z,64.09
2022-08-31T18:59:14.005Z,64.40
2022-08-31T19:01:40.469Z,65.10
2022-08-31T19:04:07.477Z,65.13
2022-08-31T19:06:34.587Z,66.01
2022-08-31T19:09:01.780Z,65.75
2022-08-31T19:11:28.161Z,66.84
2022-08-31T19:13:54.665Z,68.02
2022-08-31T19:16:22.520Z,67.57
2022-08-31T19:18:49.047Z,66.57
2022-08-31T19:21:17.261Z,67.04
2022-08-31T19:23:44.077Z,66.69
2022-08-31T19:26:10.457Z,66.45
2022-08-31T19:28:36.827Z,66.43
2022-08-31T19:31:03.209Z,66.78
2022-08-31T19:33:29.843Z,67.06
2022-08-31T19:36:03.530Z,66.44
2022-08-31T19:38:31.358Z,66.76
2022-08-31T19:40:58.344Z,68.13
2022-08-31T19:46:16.004Z,67.00
2022-08-31T19:48:44.459Z,65.91
2022-08-31T19:51:11.866Z,66.27
2022-08-31T19:53:42.525Z,66.50
2022-08-31T19:56:16.010Z,65.96
2022-08-31T19:58:42.985Z,66.14
2022-08-31T20:01:10.382Z,65.92
2022-08-31T20:03:37.288Z,65.65
2022-08-31T20:06:07.821Z,65.80
2022-08-31T20:08:35.421Z,66.12
2022-08-31T20:11:02.532Z,66.05
2022-08-31T20:13:28.973Z,66.33
2022-08-31T20:15:56.111Z,66.01
2022-08-31T20:18:23.606Z,66.29
2022-08-31T20:20:51.021Z,66.56
2022-08-31T20:23:18.807Z,67.60
2022-08-31T20:25:46.506Z,67.09
2022-08-31T20:28:13.250Z,68.32
2022-08-31T20:30:40.768Z,67.55
2022-08-31T20:33:08.144Z,67.70
2022-08-31T20:35:36.336Z,67.80
2022-08-31T20:38:02.858Z,68.29
2022-08-31T20:40:29.570Z,68.29
2022-08-31T20:42:56.093Z,69.10
2022-08-31T20:45:22.922Z,68.43
2022-08-31T20:48:07.774Z,67.82
2022-08-31T20:50:35.264Z,67.86
2022-08-31T20:53:01.768Z,68.44
2022-08-31T20:55:28.138Z,68.01
2022-08-31T20:57:54.898Z,68.21
2022-08-31T21:00:21.331Z,68.21
2022-08-31T21:02:49.918Z,68.32
2022-08-31T21:08:04.304Z,67.97
2022-08-31T21:10:36.242Z,67.56
2022-08-31T21:13:03.664Z,66.91
2022-08-31T21:15:30.074Z,67.83
2022-08-31T21:17:57.000Z,67.39
2022-08-31T21:20:25.435Z,68.24
2022-08-31T21:22:51.976Z,68.21
2022-08-31T21:25:18.713Z,68.17
2022-08-31T21:27:47.037Z,68.42
2022-08-31T21:30:13.576Z,68.53
2022-08-31T21:32:40.619Z,68.15
2022-08-31T21:35:09.953Z,68.52
2022-08-31T21:37:36.301Z,67.53
2022-08-31T21:40:03.550Z,67.65
2022-08-31T21:42:30.077Z,67.32
2022-08-31T21:44:56.404Z,67.45
2022-08-31T21:47:22.807Z,67.10
2022-08-31T21:49:53.208Z,66.84
2022-08-31T21:52:19.645Z,67.08
2022-08-31T21:54:47.899Z,66.69
2022-08-31T21:57:15.571Z,66.81
2022-08-31T21:59:42.052Z,66.34
2022-08-31T22:02:11.090Z,67.06
2022-08-31T22:04:39.438Z,66.80
2022-08-31T22:07:09.492Z,66.92
2022-08-31T22:09:36.439Z,66.81
2022-08-31T22:12:07.313Z,67.58
2022-08-31T22:14:37.897Z,67.86
2022-08-31T22:17:06.963Z,68.22
2022-08-31T22:19:36.004Z,67.73
2022-08-31T22:22:05.073Z,67.44
2022-08-31T22:24:32.542Z,68.40
2022-08-31T22:27:01.580Z,67.59
2022-08-31T22:29:29.835Z,67.59
2022-08-31T22:31:58.388Z,68.15
2022-08-31T22:34:25.242Z,68.84
2022-08-31T22:36:52.260Z,69.15
2022-08-31T22:39:23.086Z,69.22
2022-08-31T22:41:49.909Z,68.92
2022-08-31T22:44:18.308Z,69.38
2022-08-31T22:46:45.319Z,70.57
2022-08-31T22:49:12.722Z,70.69
2022-08-31T22:51:40.762Z,70.61
2022-08-31T22:54:07.841Z,69.88
2022-08-31T22:56:35.063Z,70.41
2022-08-31T22:59:05.263Z,70.26
2022-08-31T23:01:33.418Z,70.99
2022-08-31T23:04:01.295Z,71.97
2022-08-31T23:06:29.860Z,70.87
2022-08-31T23:08:57.325Z,70.80
2022-08-31T23:11:24.542Z,70.34
2022-08-31T23:13:52.696Z,71.19
2022-08-31T23:16:25.005Z,71.44
2022-08-31T23:18:52.256Z,70.85
2022-08-31T23:21:18.966Z,70.99
2022-08-31T23:23:45.774Z,69.94
2022-08-31T23:26:12.522Z,69.68
2022-08-31T23:28:39.680Z,68.98
2022-08-31T23:31:09.912Z,69.10
2022-08-31T23:33:36.408Z,68.50
2022-08-31T23:36:03.703Z,69.40
2022-08-31T23:38:31.121Z,67.93
2022-08-31T23:40:57.581Z,68.50
2022-08-31T23:43:25.030Z,68.91
2022-08-31T23:45:52.432Z,68.40
2022-08-31T23:48:19.242Z,68.25
2022-08-31T23:50:46.301Z,67.62
2022-08-31T23:53:14.594Z,67.46
2022-08-31T23:55:44.759Z,67.29
2022-08-31T23:58:14.009Z,67.47
